Time;durP1;ratioP1;P1;durP2;ratioP2;P2;SDS_P1;SDS_P2;PMS_P1;PMS_P2;Temp;Humidity;BMP_temperature;BMP_pressure;BME280_temperature;BME280_humidity;BME280_pressure;Samples;Min_cycle;Max_cycle;Signal;HPM_P1;HPM_P2
2022/08/04 00:01:55;;;;;;;4.10;3.70;;;25.40;54.90;;;;;;5063344;28;20531;-48
2022/08/04 00:04:46;;;;;;;8.13;4.30;;;25.40;54.80;;;;;;5079164;28;20457;-48
2022/08/04 00:07:28;;;;;;;5.40;4.13;;;25.40;54.90;;;;;;5067765;28;20512;-48
2022/08/04 00:10:15;;;;;;;3.93;3.63;;;25.30;55.00;;;;;;5078987;28;20445;-48
2022/08/04 00:12:46;;;;;;;5.30;4.80;;;25.30;55.10;;;;;;5074290;28;20532;-48
2022/08/04 00:15:15;;;;;;;4.07;3.77;;;25.30;55.20;;;;;;5080374;28;20464;-48
2022/08/04 00:17:53;;;;;;;4.40;4.00;;;25.30;55.10;;;;;;5082694;28;20443;-48
2022/08/04 00:20:27;;;;;;;5.83;4.33;;;25.20;55.20;;;;;;5068185;28;20447;-48
2022/08/04 00:22:56;;;;;;;3.80;3.50;;;25.20;55.20;;;;;;5058420;28;20523;-48
2022/08/04 00:25:23;;;;;;;3.97;3.67;;;25.20;55.20;;;;;;5085237;28;20457;-48
2022/08/04 00:27:50;;;;;;;4.07;3.70;;;25.20;55.50;;;;;;5054351;28;21002;-48
2022/08/04 00:30:17;;;;;;;4.07;3.77;;;25.20;55.40;;;;;;5064789;28;20452;-48
2022/08/04 00:32:44;;;;;;;4.70;3.63;;;;;;;;;;5088814;28;20452;-48
2022/08/04 00:35:15;;;;;;;4.17;3.80;;;25.10;55.70;;;;;;5081887;28;20453;-48
2022/08/04 00:37:45;;;;;;;4.83;4.03;;;25.10;55.70;;;;;;5084339;28;20492;-48
2022/08/04 00:40:22;;;;;;;5.07;3.90;;;25.10;55.70;;;;;;5088279;28;20441;-48
2022/08/04 00:43:32;;;;;;;4.27;3.47;;;25.10;55.90;;;;;;5085185;28;20548;-48
2022/08/04 00:46:19;;;;;;;4.47;4.17;;;25.00;55.90;;;;;;5069957;28;20484;-48
2022/08/04 00:49:14;;;;;;;3.73;3.53;;;25.00;56.00;;;;;;5080137;28;20483;-48
2022/08/04 00:51:48;;;;;;;6.80;4.10;;;25.00;56.00;;;;;;5077989;28;20458;-48
2022/08/04 00:54:56;;;;;;;3.80;3.50;;;25.00;56.00;;;;;;5095460;28;20456;-48
2022/08/04 00:57:26;;;;;;;4.30;3.90;;;24.90;55.90;;;;;;5081886;28;20489;-48
2022/08/04 01:00:10;;;;;;;5.47;4.97;;;24.90;56.10;;;;;;5072450;28;20460;-48
2022/08/04 01:03:18;;;;;;;5.00;4.40;;;24.90;56.30;;;;;;5064578;28;20456;-48
2022/08/04 01:06:10;;;;;;;5.63;3.53;;;24.80;56.50;;;;;;5079939;28;20465;-48
2022/08/04 01:08:57;;;;;;;5.33;3.90;;;24.80;56.30;;;;;;5083086;28;20485;-48
2022/08/04 01:11:42;;;;;;;6.87;3.80;;;24.80;56.40;;;;;;5077347;28;20459;-48
2022/08/04 01:14:41;;;;;;;4.23;3.80;;;24.70;56.50;;;;;;5084758;28;20797;-48
2022/08/04 01:17:18;;;;;;;3.97;3.67;;;24.70;56.70;;;;;;5081141;28;20460;-49
2022/08/04 01:20:09;;;;;;;6.07;3.70;;;24.70;56.50;;;;;;5077907;28;20460;-48
2022/08/04 01:23:04;;;;;;;4.23;3.50;;;24.70;56.50;;;;;;5083490;28;20526;-48
2022/08/04 01:26:12;;;;;;;4.30;3.97;;;24.60;56.30;;;;;;5060889;28;20476;-48
2022/08/04 01:29:03;;;;;;;3.80;3.50;;;24.60;56.50;;;;;;5078025;28;20464;-48
2022/08/04 01:31:55;;;;;;;3.67;3.10;;;24.60;56.40;;;;;;5098158;28;20461;-48
2022/08/04 01:34:27;;;;;;;3.60;3.30;;;24.50;56.70;;;;;;5081353;28;20455;-48
2022/08/04 01:37:02;;;;;;;3.30;3.00;;;24.50;56.80;;;;;;5078204;28;20465;-48
2022/08/04 01:39:43;;;;;;;6.00;3.73;;;24.50;56.90;;;;;;5081544;28;20504;-48
2022/08/04 01:42:15;;;;;;;6.87;4.27;;;24.50;56.80;;;;;;5083716;28;20456;-48
2022/08/04 01:45:01;;;;;;;3.97;3.40;;;24.50;56.50;;;;;;5062979;28;20482;-50
2022/08/04 01:47:29;;;;;;;4.50;3.90;;;24.40;56.60;;;;;;5081943;28;20475;-48
2022/08/04 01:50:08;;;;;;;5.20;4.50;;;24.40;56.90;;;;;;5062788;28;20461;-47
2022/08/04 01:52:36;;;;;;;5.60;3.80;;;24.40;56.90;;;;;;5077765;28;20471;-48
2022/08/04 01:55:08;;;;;;;5.90;4.10;;;24.40;57.00;;;;;;5083467;28;20445;-48
2022/08/04 01:57:49;;;;;;;4.37;3.70;;;24.30;57.00;;;;;;5072303;28;20630;-48
2022/08/04 02:00:21;;;;;;;7.00;4.70;;;24.30;57.40;;;;;;5079466;28;20462;-48
2022/08/04 02:02:50;;;;;;;4.20;3.77;;;24.30;57.50;;;;;;5074032;28;20473;-48
2022/08/04 02:05:19;;;;;;;6.03;5.37;;;24.30;57.50;;;;;;5082698;28;20456;-48
2022/08/04 02:07:59;;;;;;;4.20;3.80;;;24.30;57.60;;;;;;5071564;28;20746;-48
2022/08/04 02:10:39;;;;;;;3.97;3.67;;;24.20;57.70;;;;;;5078960;28;20957;-48
2022/08/04 02:13:27;;;;;;;5.57;4.17;;;24.20;57.80;;;;;;5083997;28;20934;-48
2022/08/04 02:16:21;;;;;;;5.10;4.10;;;24.20;57.90;;;;;;5070134;28;20989;-48
2022/08/04 02:18:57;;;;;;;4.87;4.37;;;24.20;57.90;;;;;;5078914;28;20468;-48
2022/08/04 02:21:25;;;;;;;4.13;3.73;;;24.20;57.80;;;;;;5075821;28;20448;-48
2022/08/04 02:24:04;;;;;;;4.93;3.80;;;24.20;58.00;;;;;;5079074;28;20441;-48
2022/08/04 02:26:33;;;;;;;4.53;3.87;;;24.20;58.20;;;;;;5045347;28;20452;-48
2022/08/04 02:29:15;;;;;;;4.80;4.30;;;24.20;58.30;;;;;;5058687;28;20500;-50
2022/08/04 02:31:55;;;;;;;4.23;3.70;;;24.20;58.30;;;;;;5061627;28;20804;-48
2022/08/04 02:34:25;;;;;;;5.40;4.27;;;24.10;58.40;;;;;;5059327;28;20461;-48
2022/08/04 02:36:53;;;;;;;6.00;5.03;;;24.10;58.30;;;;;;5059274;28;20464;-48
2022/08/04 02:39:21;;;;;;;4.67;4.23;;;24.10;58.50;;;;;;5073618;28;20810;-48
2022/08/04 02:41:51;;;;;;;4.30;3.90;;;24.10;58.70;;;;;;5040553;28;20523;-48
2022/08/04 02:44:22;;;;;;;7.53;3.73;;;24.10;58.80;;;;;;5056615;28;20461;-48
2022/08/04 02:46:53;;;;;;;5.83;4.10;;;24.10;59.00;;;;;;5057721;28;20476;-48
2022/08/04 02:49:22;;;;;;;4.20;3.80;;;24.00;59.00;;;;;;5057340;28;20935;-48
2022/08/04 02:51:54;;;;;;;3.60;3.30;;;24.00;59.10;;;;;;5054778;28;20458;-48
2022/08/04 02:54:32;;;;;;;6.13;4.17;;;24.00;59.10;;;;;;5055068;28;20453;-48
2022/08/04 02:57:01;;;;;;;4.10;3.63;;;24.00;59.20;;;;;;5044152;28;20579;-48
2022/08/04 02:59:49;;;;;;;5.43;4.00;;;24.00;59.20;;;;;;5056351;28;20506;-48
2022/08/04 03:02:26;;;;;;;5.33;4.40;;;24.00;59.30;;;;;;5056333;28;20850;-48
2022/08/04 03:05:05;;;;;;;4.17;3.70;;;24.00;59.30;;;;;;5045454;28;20445;-48
2022/08/04 03:08:04;;;;;;;4.23;3.70;;;24.00;59.00;;;;;;5044677;28;20476;-48
2022/08/04 03:11:15;;;;;;;3.97;3.60;;;23.90;59.20;;;;;;5028774;28;20477;-48
2022/08/04 03:14:26;;;;;;;6.10;3.80;;;23.90;59.30;;;;;;5057068;28;20464;-48
2022/08/04 03:17:24;;;;;;;4.50;3.40;;;23.90;58.90;;;;;;5045560;28;20449;-48
2022/08/04 03:20:09;;;;;;;4.10;3.50;;;23.90;58.20;;;;;;5053922;28;20453;-48
2022/08/04 03:23:13;;;;;;;4.60;4.20;;;23.80;58.20;;;;;;5060528;28;20462;-48
2022/08/04 03:26:19;;;;;;;4.30;3.90;;;23.80;58.30;;;;;;5060183;28;20465;-47
2022/08/04 03:29:04;;;;;;;4.17;3.83;;;23.80;58.50;;;;;;5036662;28;20489;-48
2022/08/04 03:31:49;;;;;;;4.13;3.43;;;23.70;58.70;;;;;;5058050;28;20467;-49
2022/08/04 03:34:44;;;;;;;3.30;3.00;;;23.70;58.70;;;;;;5060937;28;20457;-48
2022/08/04 03:37:23;;;;;;;5.83;3.40;;;23.70;59.10;;;;;;5053662;28;20465;-48
2022/08/04 03:39:55;;;;;;;3.93;3.60;;;23.60;59.10;;;;;;5068405;28;20820;-48
2022/08/04 03:42:32;;;;;;;4.17;3.80;;;23.60;59.30;;;;;;5055596;28;20882;-48
2022/08/04 03:45:17;;;;;;;4.70;4.07;;;23.60;59.40;;;;;;5074806;28;20465;-48
2022/08/04 03:47:55;;;;;;;4.20;3.90;;;23.60;59.60;;;;;;5057730;28;20496;-48
2022/08/04 03:50:28;;;;;;;6.97;4.00;;;23.50;59.70;;;;;;5059486;28;20465;-48
2022/08/04 03:53:18;;;;;;;5.90;3.70;;;23.50;60.00;;;;;;5053114;28;20462;-48
2022/08/04 03:56:23;;;;;;;4.60;4.07;;;23.50;60.10;;;;;;5060712;28;20464;-48
2022/08/04 03:59:06;;;;;;;3.60;3.30;;;23.50;60.30;;;;;;5058985;28;20503;-47
2022/08/04 04:01:48;;;;;;;4.50;3.50;;;23.50;60.40;;;;;;5078686;28;20456;-47
2022/08/04 04:04:42;;;;;;;5.67;4.40;;;23.50;60.60;;;;;;5062166;28;20461;-48
2022/08/04 04:07:30;;;;;;;4.40;3.87;;;23.50;60.70;;;;;;5059530;28;20465;-48
2022/08/04 04:10:23;;;;;;;4.57;3.97;;;23.50;60.60;;;;;;5062163;28;20464;-48
2022/08/04 04:13:06;;;;;;;4.30;4.00;;;23.50;60.80;;;;;;5063872;28;20469;-47
2022/08/04 04:16:11;;;;;;;8.23;4.60;;;23.50;60.80;;;;;;5074819;28;20829;-47
2022/08/04 04:18:45;;;;;;;3.40;3.20;;;23.50;61.00;;;;;;5064569;28;20474;-48
2022/08/04 04:21:24;;;;;;;6.20;5.20;;;23.50;60.90;;;;;;5061485;28;20460;-48
2022/08/04 04:24:09;;;;;;;5.10;4.60;;;23.40;60.80;;;;;;5057141;28;20456;-48
2022/08/04 04:26:47;;;;;;;5.20;4.70;;;23.40;60.90;;;;;;5055162;28;20452;-48
2022/08/04 04:29:36;;;;;;;4.47;4.07;;;23.40;60.50;;;;;;5061093;28;20966;-47
2022/08/04 04:32:18;;;;;;;3.87;3.47;;;23.40;60.40;;;;;;5059548;28;20509;-48
2022/08/04 04:35:10;;;;;;;4.60;3.63;;;23.40;60.30;;;;;;5073951;28;20454;-48
2022/08/04 04:38:03;;;;;;;3.90;3.60;;;23.40;60.40;;;;;;5039907;28;20454;-48
2022/08/04 04:40:57;;;;;;;4.53;3.40;;;23.40;60.50;;;;;;5050364;28;20473;-48
2022/08/04 04:44:12;;;;;;;4.20;3.80;;;23.40;60.60;;;;;;5060381;28;20492;-48
2022/08/04 04:46:53;;;;;;;4.20;3.57;;;23.40;60.60;;;;;;5012791;28;20546;-48
2022/08/04 04:49:45;;;;;;;4.13;3.60;;;23.40;60.50;;;;;;5042787;28;20484;-48
2022/08/04 04:52:26;;;;;;;3.37;3.13;;;23.40;60.30;;;;;;5057203;28;20464;-48
2022/08/04 04:55:07;;;;;;;3.90;3.60;;;23.40;60.20;;;;;;5063517;28;20981;-47
2022/08/04 04:57:35;;;;;;;5.03;3.80;;;23.40;60.20;;;;;;5062205;28;20488;-48
2022/08/04 05:00:24;;;;;;;4.93;4.03;;;23.40;60.30;;;;;;5055319;28;20534;-48
2022/08/04 05:03:28;;;;;;;4.00;3.60;;;23.40;60.30;;;;;;5058589;28;20465;-48
2022/08/04 05:06:20;;;;;;;4.10;3.70;;;23.40;60.40;;;;;;5055921;28;20460;-48
2022/08/04 05:09:17;;;;;;;4.13;3.70;;;23.40;60.60;;;;;;5057816;28;20474;-48
2022/08/04 05:12:08;;;;;;;4.20;3.43;;;23.40;60.70;;;;;;5043980;28;20710;-48
2022/08/04 05:14:58;;;;;;;3.27;3.07;;;23.50;60.60;;;;;;5061004;28;20438;-48
2022/08/04 05:17:29;;;;;;;5.23;3.30;;;23.50;60.70;;;;;;5036418;28;22059;-48
2022/08/04 05:20:14;;;;;;;4.03;3.63;;;23.50;60.70;;;;;;5045142;28;20830;-49
2022/08/04 05:22:59;;;;;;;3.70;3.40;;;23.60;60.50;;;;;;5058878;28;20456;-48
2022/08/04 05:25:34;;;;;;;4.63;4.10;;;23.60;60.40;;;;;;5058711;28;20988;-47
2022/08/04 05:28:14;;;;;;;4.03;3.50;;;23.70;60.60;;;;;;5044421;28;20484;-47
2022/08/04 05:30:48;;;;;;;4.57;4.07;;;23.70;60.70;;;;;;5059111;28;20460;-48
2022/08/04 05:33:40;;;;;;;5.70;4.10;;;23.70;60.80;;;;;;5039897;28;20953;-48
2022/08/04 05:36:14;;;;;;;3.70;3.40;;;23.70;60.80;;;;;;5051059;28;20466;-48
2022/08/04 05:38:58;;;;;;;3.83;3.53;;;23.80;60.90;;;;;;5037494;28;21014;-48
2022/08/04 05:41:27;;;;;;;5.27;3.83;;;23.80;61.10;;;;;;5057437;28;20465;-49
2022/08/04 05:44:13;;;;;;;6.57;4.37;;;23.90;60.90;;;;;;5060412;28;20456;-49
2022/08/04 05:46:41;;;;;;;4.07;3.77;;;23.90;60.80;;;;;;5058696;28;20456;-48
2022/08/04 05:49:09;;;;;;;6.03;3.30;;;24.00;60.50;;;;;;5058633;28;20865;-48
2022/08/04 05:51:39;;;;;;;4.47;4.07;;;24.10;60.20;;;;;;5061888;28;20450;-49
2022/08/04 05:54:10;;;;;;;5.13;3.67;;;24.10;60.40;;;;;;5056791;28;20457;-49
2022/08/04 05:56:38;;;;;;;8.43;4.20;;;24.20;60.10;;;;;;5041692;28;20811;-48
2022/08/04 05:59:06;;;;;;;6.20;4.20;;;24.30;59.30;;;;;;5054802;28;20473;-49
2022/08/04 06:01:34;;;;;;;5.17;4.53;;;24.30;58.90;;;;;;5059448;28;20467;-49
2022/08/04 06:04:25;;;;;;;5.27;4.57;;;24.40;59.00;;;;;;5058002;28;20457;-49
2022/08/04 06:06:53;;;;;;;5.80;4.90;;;24.50;58.40;;;;;;5055207;28;20476;-49
2022/08/04 06:09:20;;;;;;;4.60;4.20;;;24.50;58.30;;;;;;5075022;28;20496;-49
2022/08/04 06:11:48;;;;;;;4.87;4.47;;;24.60;58.20;;;;;;5057353;28;20453;-49
2022/08/04 06:14:40;;;;;;;5.90;4.27;;;24.70;57.90;;;;;;5066212;28;20506;-49
2022/08/04 06:17:10;;;;;;;7.20;4.27;;;24.80;57.80;;;;;;5052413;28;20457;-49
2022/08/04 06:19:58;;;;;;;6.23;4.77;;;24.90;57.70;;;;;;5058481;28;20461;-49
2022/08/04 06:22:53;;;;;;;5.23;3.90;;;25.00;57.60;;;;;;5056687;28;20512;-48
2022/08/04 06:25:23;;;;;;;7.00;4.10;;;25.10;57.40;;;;;;5044117;28;20457;-49
2022/08/04 06:27:51;;;;;;;3.77;3.37;;;25.20;57.40;;;;;;5058693;28;20818;-49
2022/08/04 06:30:19;;;;;;;6.80;4.20;;;25.30;57.30;;;;;;5041043;28;20476;-48
2022/08/04 06:32:54;;;;;;;4.00;3.70;;;25.40;57.10;;;;;;5058182;28;20458;-48
2022/08/04 06:35:31;;;;;;;4.40;3.90;;;25.50;56.80;;;;;;5053819;28;20551;-49
2022/08/04 06:37:59;;;;;;;4.50;4.10;;;25.60;56.60;;;;;;5056736;28;20980;-49
2022/08/04 06:40:28;;;;;;;4.63;4.23;;;25.70;56.10;;;;;;5057850;28;21108;-49
2022/08/04 06:43:05;;;;;;;4.67;3.83;;;25.80;56.40;;;;;;5072596;28;20453;-49
2022/08/04 06:45:36;;;;;;;4.47;4.13;;;25.90;56.10;;;;;;5057397;28;20450;-49
2022/08/04 06:48:05;;;;;;;4.60;4.20;;;26.10;56.00;;;;;;5058364;28;20472;-49
2022/08/04 06:50:34;;;;;;;5.23;4.37;;;26.10;55.70;;;;;;5057627;28;20470;-49
2022/08/04 06:53:21;;;;;;;7.10;5.13;;;26.20;55.80;;;;;;5060992;28;20453;-49
2022/08/04 06:55:49;;;;;;;6.23;4.90;;;26.40;55.50;;;;;;5060684;28;20437;-49
2022/08/04 06:58:18;;;;;;;4.37;3.83;;;26.60;54.80;;;;;;5044771;28;20504;-49
2022/08/04 07:00:46;;;;;;;4.80;4.10;;;26.70;53.90;;;;;;5050601;28;20462;-49
2022/08/04 07:03:16;;;;;;;4.80;4.13;;;26.80;53.90;;;;;;5043401;28;20453;-49
2022/08/04 07:05:46;;;;;;;4.60;3.90;;;26.90;52.70;;;;;;5045373;28;20285;-49
2022/08/04 07:08:13;;;;;;;4.97;4.30;;;27.00;52.50;;;;;;5039309;28;20207;-49
2022/08/04 07:10:40;;;;;;;5.60;4.37;;;27.10;52.60;;;;;;5059256;28;20448;-49
2022/08/04 07:13:08;;;;;;;8.77;5.07;;;27.20;52.60;;;;;;5062495;28;20959;-49
2022/08/04 07:15:37;;;;;;;5.67;4.30;;;27.30;52.40;;;;;;5047191;28;20951;-49
2022/08/04 07:18:04;;;;;;;16.10;3.90;;;27.30;52.30;;;;;;5059850;28;20483;-49
2022/08/04 07:20:32;;;;;;;9.53;4.30;;;27.40;52.40;;;;;;5056435;28;20449;-49
2022/08/04 07:23:04;;;;;;;9.03;4.73;;;27.50;52.80;;;;;;5052309;28;20511;-49
2022/08/04 07:25:33;;;;;;;7.17;3.50;;;27.60;52.40;;;;;;5077667;28;20506;-49
2022/08/04 07:28:21;;;;;;;7.07;4.40;;;27.80;51.90;;;;;;5052146;28;20208;-49
2022/08/04 07:30:49;;;;;;;5.80;4.90;;;28.00;51.50;;;;;;5053058;28;20218;-49
2022/08/04 07:33:17;;;;;;;4.40;3.97;;;28.20;51.30;;;;;;5042320;28;20202;-49
2022/08/04 07:35:50;;;;;;;6.60;5.10;;;28.30;51.40;;;;;;5054247;28;20211;-50
2022/08/04 07:38:38;;;;;;;9.50;4.53;;;28.30;51.60;;;;;;5054441;28;20214;-49
2022/08/04 07:41:21;;;;;;;6.53;5.50;;;28.50;51.40;;;;;;5058398;28;20218;-49
2022/08/04 07:44:04;;;;;;;5.97;3.80;;;28.60;51.00;;;;;;5058463;28;20207;-49
2022/08/04 07:46:31;;;;;;;5.87;4.73;;;28.70;50.80;;;;;;5060892;28;20207;-49
2022/08/04 07:48:59;;;;;;;5.80;4.90;;;28.80;50.70;;;;;;5057480;28;20734;-49
2022/08/04 07:51:27;;;;;;;6.50;4.73;;;28.90;50.50;;;;;;5041187;28;20215;-49
2022/08/04 07:53:55;;;;;;;5.57;4.10;;;29.00;50.50;;;;;;5059172;28;20203;-49
2022/08/04 07:56:23;;;;;;;4.17;3.83;;;29.10;50.70;;;;;;5040669;28;20261;-49
2022/08/04 07:58:50;;;;;;;7.40;3.90;;;29.20;50.00;;;;;;5056414;28;22091;-49
2022/08/04 08:01:18;;;;;;;7.43;3.80;;;29.20;49.00;;;;;;5043059;28;20207;-49
2022/08/04 08:03:46;;;;;;;5.25;4.60;;;29.30;48.60;;;;;;5041405;28;20206;-49
2022/08/04 08:06:13;;;;;;;4.15;3.45;;;29.40;48.60;;;;;;5054986;28;20202;-49
2022/08/04 08:09:00;;;;;;;7.65;4.43;;;29.40;48.90;;;;;;5037817;28;20264;-50
2022/08/04 08:11:48;;;;;;;9.07;4.95;;;29.50;48.70;;;;;;5054211;28;20688;-50
2022/08/04 08:14:35;;;;;;;4.82;4.32;;;29.60;48.50;;;;;;5055677;28;20246;-49
2022/08/04 08:17:03;;;;;;;4.10;3.70;;;29.80;48.40;;;;;;5058965;28;20554;-50
2022/08/04 08:19:32;;;;;;;6.47;4.50;;;29.90;47.80;;;;;;5067940;28;20674;-50
2022/08/04 08:21:59;;;;;;;3.83;3.47;;;30.10;47.40;;;;;;5041027;28;20212;-50
2022/08/04 08:24:29;;;;;;;6.18;3.90;;;30.20;47.30;;;;;;5059004;28;20211;-49
2022/08/04 08:26:57;;;;;;;6.53;4.13;;;30.30;46.80;;;;;;5056516;28;20237;-49
2022/08/04 08:29:25;;;;;;;5.60;3.72;;;30.30;46.70;;;;;;5059428;28;20226;-50
2022/08/04 08:31:53;;;;;;;4.30;3.90;;;30.50;46.30;;;;;;5032407;28;20208;-50
2022/08/04 08:34:25;;;;;;;5.18;4.07;;;30.70;46.30;;;;;;5056510;28;21023;-50
2022/08/04 08:37:11;;;;;;;4.82;4.18;;;30.80;46.10;;;;;;5054842;28;20205;-50
2022/08/04 08:40:09;;;;;;;6.15;4.30;;;30.90;45.60;;;;;;5055224;28;20215;-50
2022/08/04 08:42:35;;;;;;;5.40;4.55;;;31.00;45.70;;;;;;5058280;28;20208;-50
2022/08/04 08:45:30;;;;;;;8.38;4.70;;;31.00;45.70;;;;;;5060205;28;20219;-50
2022/08/04 08:48:09;;;;;;;4.75;3.95;;;31.20;45.20;;;;;;5073241;28;20211;-50
2022/08/04 08:51:12;;;;;;;4.18;3.63;;;31.30;44.70;;;;;;5051477;28;20325;-50
2022/08/04 08:53:55;;;;;;;5.15;3.78;;;31.50;45.00;;;;;;5065635;28;20213;-50
2022/08/04 08:56:25;;;;;;;7.70;4.20;;;31.60;44.90;;;;;;5057786;28;20207;-50
2022/08/04 08:59:25;;;;;;;4.97;4.10;;;31.80;44.30;;;;;;5052228;28;20225;-50
2022/08/04 09:02:16;;;;;;;4.63;3.58;;;32.00;44.00;;;;;;5040274;28;20222;-50
2022/08/04 09:05:11;;;;;;;5.55;3.65;;;32.10;43.40;;;;;;5070038;28;20221;-50
2022/08/04 09:07:46;;;;;;;3.97;3.60;;;32.20;43.40;;;;;;5055104;28;20208;-50
2022/08/04 09:10:29;;;;;;;4.97;3.78;;;32.30;43.40;;;;;;5072996;28;20230;-50
2022/08/04 09:13:15;;;;;;;4.43;4.03;;;32.30;43.40;;;;;;5045752;28;20489;-50
2022/08/04 09:16:13;;;;;;;4.20;3.90;;;32.40;43.30;;;;;;5042819;28;20199;-50
2022/08/04 09:19:10;;;;;;;5.28;4.18;;;32.60;43.40;;;;;;5059148;28;20218;-50
2022/08/04 09:22:12;;;;;;;7.18;3.47;;;32.70;42.30;;;;;;5057325;28;20207;-50
2022/08/04 09:25:16;;;;;;;4.55;3.95;;;32.80;42.50;;;;;;5055673;28;20199;-50
2022/08/04 09:27:50;;;;;;;4.80;3.67;;;32.90;42.30;;;;;;5058095;28;20587;-50
2022/08/04 09:30:36;;;;;;;5.00;3.50;;;33.10;42.00;;;;;;5052753;28;20226;-50
2022/08/04 09:33:22;;;;;;;5.57;3.80;;;33.20;41.80;;;;;;5053464;28;20209;-50
2022/08/04 09:36:25;;;;;;;9.20;3.85;;;33.40;41.50;;;;;;5057742;28;20207;-50
2022/08/04 09:39:24;;;;;;;4.85;3.67;;;33.60;41.20;;;;;;5041327;28;20231;-50
2022/08/04 09:42:31;;;;;;;3.53;3.22;;;33.70;41.00;;;;;;5057297;28;20277;-50
2022/08/04 09:45:11;;;;;;;14.07;4.07;;;33.90;40.80;;;;;;5044062;28;20215;-50
2022/08/04 09:48:12;;;;;;;5.30;3.63;;;34.00;40.60;;;;;;5059981;28;20199;-50
2022/08/04 09:50:44;;;;;;;5.72;3.83;;;34.00;40.50;;;;;;5055300;28;20664;-50
2022/08/04 09:53:47;;;;;;;5.85;3.75;;;34.20;40.50;;;;;;5056361;28;20617;-50
2022/08/04 09:56:19;;;;;;;5.97;3.80;;;34.30;40.20;;;;;;5056664;28;20218;-51
2022/08/04 09:59:11;;;;;;;3.78;3.47;;;34.40;40.30;;;;;;5044424;28;20733;-51
2022/08/04 10:01:41;;;;;;;4.35;3.40;;;34.60;39.80;;;;;;5059060;28;20202;-50
2022/08/04 10:04:12;;;;;;;4.10;3.75;;;34.70;39.70;;;;;;5060121;28;20202;-51
2022/08/04 10:06:55;;;;;;;4.05;3.00;;;34.90;39.40;;;;;;5054304;28;20680;-51
2022/08/04 10:09:25;;;;;;;5.10;3.58;;;35.20;38.60;;;;;;5045237;28;20231;-50
2022/08/04 10:12:25;;;;;;;4.47;3.47;;;35.40;38.50;;;;;;5056570;28;20606;-50
2022/08/04 10:15:01;;;;;;;4.60;3.60;;;35.50;38.10;;;;;;5055121;28;20199;-50
2022/08/04 10:17:41;;;;;;;3.30;3.10;;;35.70;38.10;;;;;;5042328;28;20211;-51
2022/08/04 10:20:52;;;;;;;4.05;3.65;;;35.80;38.20;;;;;;5058715;28;20211;-51
2022/08/04 10:23:50;;;;;;;3.97;3.58;;;36.00;37.40;;;;;;5043344;28;21021;-50
2022/08/04 10:26:33;;;;;;;4.40;3.42;;;36.20;37.20;;;;;;5056689;28;20235;-51
2022/08/04 10:29:23;;;;;;;3.25;2.95;;;36.30;37.30;;;;;;5053268;28;20215;-51
2022/08/04 10:32:13;;;;;;;6.45;3.25;;;36.30;36.90;;;;;;5054823;28;20690;-51
2022/08/04 10:35:08;;;;;;;4.10;3.70;;;36.30;36.90;;;;;;5068602;28;20207;-51
2022/08/04 10:37:57;;;;;;;4.25;3.15;;;36.30;36.70;;;;;;5055348;28;20207;-51
2022/08/04 10:40:43;;;;;;;3.13;2.83;;;36.00;36.50;;;;;;5036209;28;20226;-51
2022/08/04 10:43:24;;;;;;;3.63;3.33;;;35.90;36.90;;;;;;5052776;28;20217;-51
2022/08/04 10:46:20;;;;;;;3.40;3.03;;;35.70;37.20;;;;;;5056182;28;20217;-51
2022/08/04 10:48:55;;;;;;;5.13;3.53;;;35.60;37.10;;;;;;5051975;28;20218;-51
2022/08/04 10:51:46;;;;;;;8.23;3.10;;;35.50;37.30;;;;;;5043604;28;20566;-51
2022/08/04 10:54:49;;;;;;;3.88;2.80;;;35.40;37.60;;;;;;5052401;28;20564;-50
2022/08/04 10:57:34;;;;;;;3.17;2.50;;;35.30;37.10;;;;;;5073089;28;20719;-51
2022/08/04 11:00:15;;;;;;;4.82;3.20;;;35.00;37.00;;;;;;5055839;28;20225;-51
2022/08/04 11:02:57;;;;;;;3.33;2.45;;;34.90;36.90;;;;;;5052536;28;20210;-51
2022/08/04 11:05:30;;;;;;;2.95;2.72;;;34.90;36.90;;;;;;5040045;28;20211;-51
2022/08/04 11:08:04;;;;;;;2.85;2.53;;;35.00;37.10;;;;;;5056877;28;20211;-51
2022/08/04 11:10:56;;;;;;;2.33;2.13;;;35.00;37.30;;;;;;5055860;28;20226;-50
2022/08/04 11:13:28;;;;;;;2.40;2.17;;;35.00;36.70;;;;;;5052495;28;20201;-50
2022/08/04 11:16:01;;;;;;;6.25;2.72;;;35.00;36.50;;;;;;5051444;28;20199;-50
2022/08/04 11:18:41;;;;;;;4.15;2.50;;;35.00;36.30;;;;;;5053874;28;20207;-50
2022/08/04 11:21:24;;;;;;;5.05;3.15;;;34.90;36.20;;;;;;5055147;28;20211;-51
2022/08/04 11:24:23;;;;;;;3.20;2.70;;;34.90;36.90;;;;;;5051111;28;20204;-51
2022/08/04 11:27:16;;;;;;;6.53;3.20;;;34.80;36.40;;;;;;5031954;28;20580;-50
2022/08/04 11:30:06;;;;;;;4.05;2.80;;;34.80;36.40;;;;;;5040603;28;20223;-51
2022/08/04 11:32:50;;;;;;;2.97;2.47;;;34.80;36.30;;;;;;5048989;28;20754;-51
2022/08/04 11:35:29;;;;;;;3.15;2.50;;;34.80;36.10;;;;;;5046053;28;20211;-51
2022/08/04 11:38:09;;;;;;;2.75;2.33;;;34.80;35.90;;;;;;5059289;28;20207;-51
2022/08/04 11:40:44;;;;;;;2.95;2.35;;;34.70;36.00;;;;;;5051589;28;20202;-51
2022/08/04 11:43:55;;;;;;;2.63;1.95;;;34.70;35.20;;;;;;5044019;28;20723;-51
2022/08/04 11:46:38;;;;;;;2.42;2.22;;;34.70;34.90;;;;;;5051057;28;20617;-51
2022/08/04 11:49:25;;;;;;;2.33;1.90;;;34.80;34.80;;;;;;5055941;28;20202;-51
2022/08/04 11:51:55;;;;;;;4.82;1.90;;;34.80;34.90;;;;;;5046480;28;20202;-50
2022/08/04 11:54:22;;;;;;;2.15;1.80;;;34.80;34.90;;;;;;5056448;28;20424;-51
2022/08/04 11:56:49;;;;;;;1.40;1.30;;;34.80;34.20;;;;;;5043293;28;20227;-51
2022/08/04 11:59:18;;;;;;;1.80;1.52;;;34.70;34.00;;;;;;5054584;28;20225;-51
2022/08/04 12:02:25;;;;;;;2.88;1.90;;;34.70;33.10;;;;;;5037776;28;20237;-51
2022/08/04 12:04:56;;;;;;;2.05;1.77;;;34.80;33.90;;;;;;5038142;28;20206;-51
2022/08/04 12:07:39;;;;;;;3.95;2.05;;;34.80;33.80;;;;;;5056862;28;20211;-51
2022/08/04 12:10:25;;;;;;;4.22;2.35;;;34.80;33.70;;;;;;5055476;28;20760;-51
2022/08/04 12:13:25;;;;;;;5.80;2.13;;;34.90;34.10;;;;;;5055484;28;20667;-50
2022/08/04 12:16:02;;;;;;;3.40;1.83;;;34.90;34.10;;;;;;5061232;28;20294;-51
2022/08/04 12:18:39;;;;;;;2.25;1.52;;;35.00;34.00;;;;;;5057791;28;20206;-51
2022/08/04 12:21:39;;;;;;;1.77;1.63;;;35.00;33.70;;;;;;5044918;28;20215;-51
2022/08/04 12:24:43;;;;;;;1.67;1.58;;;35.10;33.30;;;;;;5056277;28;20210;-51
2022/08/04 12:27:18;;;;;;;4.60;2.13;;;35.10;32.50;;;;;;5045893;28;20202;-51
2022/08/04 12:29:52;;;;;;;1.70;1.60;;;35.10;32.60;;;;;;5058568;28;20305;-50
2022/08/04 12:32:47;;;;;;;2.60;1.48;;;35.10;32.30;;;;;;5059197;28;20199;-51
2022/08/04 12:35:39;;;;;;;2.15;1.80;;;35.20;32.10;;;;;;5060607;28;20207;-51
2022/08/04 12:38:31;;;;;;;2.10;1.67;;;35.20;32.00;;;;;;5061140;28;20229;-50
2022/08/04 12:41:02;;;;;;;1.92;1.55;;;35.30;32.30;;;;;;5040055;28;20215;-51
2022/08/04 12:43:38;;;;;;;1.90;1.80;;;35.30;32.30;;;;;;5056534;28;20542;-51
2022/08/04 12:46:08;;;;;;;1.85;1.75;;;35.40;31.70;;;;;;5058343;28;20214;-51
2022/08/04 12:48:37;;;;;;;3.63;1.75;;;35.40;31.90;;;;;;5057369;28;20626;-51
2022/08/04 12:51:07;;;;;;;1.50;1.40;;;35.40;31.70;;;;;;5056134;28;20235;-51
2022/08/04 12:53:55;;;;;;;2.25;1.30;;;35.30;31.70;;;;;;5054973;28;20257;-51
2022/08/04 12:56:25;;;;;;;1.77;1.67;;;35.30;31.80;;;;;;5068090;28;20216;-51
2022/08/04 12:59:00;;;;;;;2.65;1.90;;;35.20;32.10;;;;;;5057530;28;20822;-51
2022/08/04 13:01:28;;;;;;;3.65;1.50;;;35.20;32.00;;;;;;5055388;28;20990;-51
2022/08/04 13:04:21;;;;;;;2.97;1.67;;;35.20;32.30;;;;;;5058564;28;20277;-51
2022/08/04 13:07:06;;;;;;;1.63;1.50;;;35.20;32.10;;;;;;5069535;28;20587;-51
2022/08/04 13:09:36;;;;;;;1.63;1.52;;;35.20;32.30;;;;;;5036601;28;20645;-51
2022/08/04 13:12:11;;;;;;;4.43;1.65;;;35.10;32.50;;;;;;5051115;28;20253;-51
2022/08/04 13:14:43;;;;;;;2.10;1.90;;;35.10;31.90;;;;;;5053548;28;20221;-51
2022/08/04 13:17:10;;;;;;;2.00;1.90;;;35.10;32.10;;;;;;5039900;28;20217;-51
2022/08/04 13:19:38;;;;;;;1.52;1.42;;;35.10;32.10;;;;;;5054562;28;20207;-51
2022/08/04 13:22:07;;;;;;;1.73;1.63;;;35.10;32.40;;;;;;5055097;28;20207;-51
2022/08/04 13:24:37;;;;;;;2.25;2.05;;;35.10;31.50;;;;;;5035996;28;20207;-51
2022/08/04 13:27:25;;;;;;;2.53;1.80;;;35.10;31.50;;;;;;5058753;28;20216;-50
2022/08/04 13:29:55;;;;;;;1.75;1.65;;;35.00;31.50;;;;;;5055563;28;20210;-50
2022/08/04 13:32:29;;;;;;;1.52;1.42;;;35.00;32.60;;;;;;5052171;28;20207;-50
2022/08/04 13:34:58;;;;;;;1.88;1.77;;;35.00;32.60;;;;;;5055305;28;20732;-50
2022/08/04 13:37:34;;;;;;;1.75;1.58;;;35.00;32.70;;;;;;5058322;28;20221;-50
2022/08/04 13:40:05;;;;;;;3.10;1.92;;;34.90;32.70;;;;;;5059592;28;20198;-50
2022/08/04 13:42:34;;;;;;;1.75;1.65;;;34.90;32.80;;;;;;5043785;28;20218;-50
2022/08/04 13:45:04;;;;;;;2.13;1.90;;;34.90;32.30;;;;;;5055121;28;20196;-51
2022/08/04 13:47:34;;;;;;;4.53;2.35;;;34.80;32.50;;;;;;5051583;28;20207;-50
2022/08/04 13:50:25;;;;;;;4.38;2.38;;;34.80;32.60;;;;;;5046242;28;20250;-50
2022/08/04 13:52:54;;;;;;;2.00;1.80;;;34.80;33.00;;;;;;5053519;28;20207;-50
2022/08/04 13:55:34;;;;;;;3.58;2.45;;;34.80;33.10;;;;;;5055739;28;20210;-50
2022/08/04 13:58:31;;;;;;;2.05;1.92;;;34.80;33.50;;;;;;5049183;28;20231;-50